Time;durP1;ratioP1;P1;durP2;ratioP2;P2;SDS_P1;SDS_P2;PMS_P1;PMS_P2;Temp;Humidity;BMP_temperature;BMP_pressure;BME280_temperature;BME280_humidity;BME280_pressure;Samples;Min_cycle;Max_cycle;Signal;HPM_P1;HPM_P2
2023/03/11 00:01:46;;;;;;;0.60;0.50;;;3.60;99.90;;;;;;4980812;28;20213;-61
2023/03/11 00:04:14;;;;;;;0.50;0.40;;;3.70;99.90;;;;;;4979735;28;20203;-62
2023/03/11 00:06:42;;;;;;;0.60;0.40;;;3.70;99.90;;;;;;4983906;28;20232;-61
2023/03/11 00:09:10;;;;;;;0.60;0.40;;;3.90;99.90;;;;;;4982058;28;20234;-61
2023/03/11 00:11:38;;;;;;;0.60;0.50;;;3.80;99.90;;;;;;4979723;28;20212;-61
2023/03/11 00:14:06;;;;;;;0.68;0.50;;;3.80;99.90;;;;;;4981557;28;20211;-61
2023/03/11 00:16:33;;;;;;;0.70;0.43;;;3.60;99.90;;;;;;4983847;28;20705;-61
2023/03/11 00:19:03;;;;;;;0.60;0.47;;;3.70;99.90;;;;;;4980859;28;20673;-61
2023/03/11 00:21:31;;;;;;;0.50;0.50;;;3.80;99.90;;;;;;4980285;28;20310;-61
2023/03/11 00:23:59;;;;;;;0.80;0.40;;;3.70;99.90;;;;;;4975510;28;20207;-61
2023/03/11 00:26:27;;;;;;;0.50;0.40;;;3.70;99.90;;;;;;4979817;28;20262;-61
2023/03/11 00:28:55;;;;;;;0.70;0.50;;;3.70;99.90;;;;;;4980176;28;20211;-62
2023/03/11 00:31:25;;;;;;;0.70;0.50;;;3.70;99.90;;;;;;4975247;28;20212;-61
2023/03/11 00:33:53;;;;;;;0.50;0.38;;;3.50;99.90;;;;;;4968548;28;20224;-61
2023/03/11 00:36:27;;;;;;;0.50;0.38;;;3.60;99.90;;;;;;4972160;28;20707;-61
2023/03/11 00:38:55;;;;;;;0.55;0.40;;;3.50;99.90;;;;;;4972370;28;20241;-61
2023/03/11 00:41:23;;;;;;;0.57;0.40;;;3.50;99.90;;;;;;4974688;28;20214;-62
2023/03/11 00:43:51;;;;;;;0.50;0.40;;;3.70;99.90;;;;;;4971655;28;20209;-61
2023/03/11 00:46:29;;;;;;;0.60;0.40;;;3.70;99.90;;;;;;4972938;28;20604;-61
2023/03/11 00:48:58;;;;;;;0.50;0.40;;;4.00;99.90;;;;;;4972885;28;20211;-61
2023/03/11 00:51:28;;;;;;;0.93;0.80;;;3.80;99.90;;;;;;4972116;28;20210;-61
2023/03/11 00:53:56;;;;;;;2.25;0.60;;;3.70;99.90;;;;;;4971889;28;20278;-61
2023/03/11 00:56:23;;;;;;;0.57;0.45;;;3.60;99.90;;;;;;4974608;28;20238;-61
2023/03/11 00:58:51;;;;;;;0.60;0.45;;;3.50;99.90;;;;;;4975318;28;20226;-61
2023/03/11 01:01:20;;;;;;;0.60;0.50;;;3.80;99.90;;;;;;4972482;28;20218;-61
2023/03/11 01:03:48;;;;;;;0.60;0.40;;;3.70;99.90;;;;;;4972962;28;20209;-61
2023/03/11 01:06:16;;;;;;;0.80;0.50;;;3.80;99.90;;;;;;4979467;28;20235;-62
2023/03/11 01:08:45;;;;;;;0.60;0.40;;;3.70;99.90;;;;;;4969231;28;20205;-62
2023/03/11 01:11:13;;;;;;;0.50;0.40;;;3.60;99.90;;;;;;4966414;28;20206;-61
2023/03/11 01:13:41;;;;;;;0.57;0.40;;;3.60;99.90;;;;;;4969099;28;20216;-61
2023/03/11 01:16:09;;;;;;;0.60;0.50;;;3.70;99.90;;;;;;4971611;28;20223;-61
2023/03/11 01:18:37;;;;;;;0.60;0.40;;;3.60;99.90;;;;;;4971410;28;20251;-61
2023/03/11 01:21:05;;;;;;;0.50;0.30;;;3.60;99.90;;;;;;4971523;28;20217;-61
2023/03/11 01:23:33;;;;;;;0.50;0.40;;;3.80;99.90;;;;;;4973246;28;20208;-61
2023/03/11 01:26:02;;;;;;;0.70;0.40;;;3.60;99.90;;;;;;4975274;28;20226;-62
2023/03/11 01:28:30;;;;;;;0.60;0.40;;;3.40;99.90;;;;;;4967309;28;20274;-61
2023/03/11 01:30:58;;;;;;;0.70;0.57;;;3.40;99.90;;;;;;4971921;28;20214;-61
2023/03/11 01:33:26;;;;;;;0.60;0.40;;;3.60;99.90;;;;;;4975257;28;20199;-62
2023/03/11 01:35:54;;;;;;;0.60;0.40;;;3.60;99.90;;;;;;4983097;28;20301;-63
2023/03/11 01:38:22;;;;;;;0.60;0.50;;;3.70;99.90;;;;;;4974708;28;20221;-63
2023/03/11 01:40:52;;;;;;;0.70;0.50;;;4.00;99.90;;;;;;4981435;28;20285;-62
2023/03/11 01:43:49;;;;;;;0.50;0.40;;;4.20;99.90;;;;;;4981695;28;20293;-62
2023/03/11 01:46:18;;;;;;;1.05;0.60;;;4.40;99.90;;;;;;4985548;28;20242;-63
2023/03/11 01:48:49;;;;;;;0.60;0.40;;;4.40;99.90;;;;;;4965915;28;20735;-63
2023/03/11 01:51:23;;;;;;;0.60;0.40;;;4.20;99.90;;;;;;4971392;28;20241;-63
2023/03/11 01:53:52;;;;;;;0.50;0.30;;;3.90;99.90;;;;;;4963679;28;20649;-62
2023/03/11 01:56:20;;;;;;;0.60;0.50;;;4.00;99.90;;;;;;4982917;28;20317;-62
2023/03/11 01:58:52;;;;;;;0.55;0.40;;;4.20;99.90;;;;;;4982632;28;20286;-63
2023/03/11 02:01:22;;;;;;;0.60;0.40;;;4.30;99.90;;;;;;4983834;28;20222;-63
2023/03/11 02:03:50;;;;;;;0.85;0.55;;;4.50;99.90;;;;;;4984667;28;20249;-63
2023/03/11 02:06:21;;;;;;;0.57;0.40;;;4.70;99.90;;;;;;4984052;28;20322;-63
2023/03/11 02:08:50;;;;;;;0.50;0.35;;;4.80;99.90;;;;;;4983019;28;20211;-63
2023/03/11 02:11:23;;;;;;;1.70;1.20;;;5.00;99.90;;;;;;4977751;28;20212;-63
2023/03/11 02:13:56;;;;;;;0.50;0.40;;;4.90;99.90;;;;;;4986439;28;20211;-62
2023/03/11 02:16:24;;;;;;;0.93;0.40;;;4.80;99.90;;;;;;4983284;28;20257;-62
2023/03/11 02:18:52;;;;;;;0.60;0.45;;;4.50;99.90;;;;;;4982615;28;20216;-62
2023/03/11 02:21:26;;;;;;;0.60;0.43;;;4.30;99.90;;;;;;4974031;28;20207;-62
2023/03/11 02:24:03;;;;;;;0.50;0.40;;;4.30;99.90;;;;;;4982558;28;20215;-62
2023/03/11 02:26:37;;;;;;;0.50;0.40;;;4.40;99.90;;;;;;4975077;28;20250;-62
2023/03/11 02:29:09;;;;;;;0.60;0.50;;;4.40;99.90;;;;;;4982350;28;20755;-61
2023/03/11 02:31:39;;;;;;;0.50;0.40;;;4.30;99.90;;;;;;4985691;28;20294;-62
2023/03/11 02:34:18;;;;;;;0.60;0.40;;;3.70;99.90;;;;;;4985079;28;20219;-62
2023/03/11 02:36:46;;;;;;;0.60;0.50;;;3.80;99.90;;;;;;4981767;28;20233;-63
2023/03/11 02:39:14;;;;;;;0.70;0.50;;;3.90;99.90;;;;;;4979782;28;20301;-62
2023/03/11 02:41:45;;;;;;;0.63;0.40;;;4.00;99.90;;;;;;4981940;28;20684;-62
2023/03/11 02:44:16;;;;;;;0.60;0.40;;;4.10;99.90;;;;;;4983211;28;20663;-62
2023/03/11 02:46:45;;;;;;;1.48;0.50;;;4.20;99.90;;;;;;4980219;28;20228;-63
2023/03/11 02:49:13;;;;;;;0.50;0.40;;;4.40;99.90;;;;;;4983073;28;20250;-63
2023/03/11 02:51:41;;;;;;;0.60;0.40;;;4.60;99.90;;;;;;4985304;28;20208;-63
2023/03/11 02:54:09;;;;;;;0.50;0.40;;;4.60;99.90;;;;;;4980006;28;20221;-63
2023/03/11 02:56:37;;;;;;;0.60;0.50;;;4.60;99.90;;;;;;4985352;28;20237;-61
2023/03/11 02:59:05;;;;;;;0.60;0.40;;;4.70;99.90;;;;;;4985314;28;20207;-62
2023/03/11 03:01:34;;;;;;;0.60;0.50;;;4.70;99.90;;;;;;4972013;28;20262;-62
2023/03/11 03:04:02;;;;;;;0.60;0.40;;;4.80;99.90;;;;;;4966091;28;20198;-61
2023/03/11 03:06:30;;;;;;;0.50;0.40;;;4.40;99.90;;;;;;4968972;28;20309;-61
2023/03/11 03:08:58;;;;;;;0.60;0.50;;;4.10;99.90;;;;;;4980257;28;20311;-61
2023/03/11 03:11:26;;;;;;;0.60;0.40;;;3.90;99.90;;;;;;4977865;28;20218;-61
2023/03/11 03:13:54;;;;;;;1.42;0.50;;;3.60;99.90;;;;;;4973703;28;20597;-62
2023/03/11 03:16:21;;;;;;;0.70;0.50;;;3.70;99.90;;;;;;4981497;28;20318;-62
2023/03/11 03:18:51;;;;;;;0.65;0.50;;;3.60;99.90;;;;;;4968661;28;20209;-61
2023/03/11 03:21:19;;;;;;;1.08;0.60;;;3.70;99.90;;;;;;4970045;28;20279;-62
2023/03/11 03:23:47;;;;;;;0.60;0.50;;;3.90;99.90;;;;;;4962132;28;20756;-62
2023/03/11 03:26:15;;;;;;;0.60;0.47;;;3.80;99.90;;;;;;4968296;28;20242;-62
2023/03/11 03:28:43;;;;;;;0.50;0.40;;;3.70;99.90;;;;;;4967685;28;20233;-62
2023/03/11 03:31:11;;;;;;;0.70;0.40;;;3.90;99.90;;;;;;4969220;28;20208;-62
2023/03/11 03:33:39;;;;;;;0.50;0.40;;;4.10;99.90;;;;;;4969189;28;20209;-61
2023/03/11 03:36:11;;;;;;;0.60;0.40;;;4.00;99.90;;;;;;4967787;28;20240;-61
2023/03/11 03:38:40;;;;;;;0.65;0.52;;;3.90;99.90;;;;;;4970014;28;20217;-61
2023/03/11 03:41:08;;;;;;;0.60;0.50;;;3.80;99.90;;;;;;4968019;28;20207;-62
2023/03/11 03:43:36;;;;;;;1.88;0.52;;;3.80;99.90;;;;;;4967690;28;20290;-62
2023/03/11 03:46:05;;;;;;;2.10;0.77;;;3.70;99.90;;;;;;4964473;28;20702;-63
2023/03/11 03:48:33;;;;;;;0.90;0.40;;;3.60;99.90;;;;;;4967141;28;20236;-62
2023/03/11 03:51:05;;;;;;;0.60;0.50;;;3.50;99.90;;;;;;4970298;28;20205;-61
2023/03/11 03:53:36;;;;;;;0.60;0.45;;;3.50;99.90;;;;;;4968640;28;20212;-61
2023/03/11 03:56:04;;;;;;;0.70;0.57;;;3.60;99.90;;;;;;4962975;28;20311;-61
2023/03/11 03:58:32;;;;;;;0.60;0.40;;;3.60;99.90;;;;;;4973590;28;20204;-62
2023/03/11 04:01:00;;;;;;;0.73;0.50;;;3.80;99.90;;;;;;4973466;28;20239;-61
2023/03/11 04:03:28;;;;;;;0.60;0.47;;;3.70;99.90;;;;;;4968888;28;20210;-62
2023/03/11 04:06:06;;;;;;;0.90;0.60;;;4.00;99.90;;;;;;4972905;28;20236;-62
2023/03/11 04:08:35;;;;;;;0.88;0.40;;;4.20;99.90;;;;;;4975817;28;20567;-62
2023/03/11 04:11:03;;;;;;;0.60;0.40;;;4.20;99.90;;;;;;4971973;28;20215;-61
2023/03/11 04:13:31;;;;;;;0.60;0.55;;;4.10;99.90;;;;;;4974583;28;20239;-61
2023/03/11 04:16:00;;;;;;;0.60;0.57;;;3.90;99.90;;;;;;4975419;28;20314;-61
2023/03/11 04:18:27;;;;;;;0.77;0.50;;;3.80;99.90;;;;;;4971556;28;20225;-62
2023/03/11 04:20:55;;;;;;;0.60;0.50;;;3.70;99.90;;;;;;4971792;28;20645;-61
2023/03/11 04:23:23;;;;;;;0.60;0.40;;;3.60;99.90;;;;;;4974134;28;20287;-61
2023/03/11 04:25:52;;;;;;;0.60;0.50;;;3.90;99.90;;;;;;4973908;28;20327;-61
2023/03/11 04:28:20;;;;;;;0.60;0.52;;;3.80;99.90;;;;;;4975283;28;20301;-61
2023/03/11 04:30:48;;;;;;;0.68;0.68;;;3.80;99.90;;;;;;4983907;28;20210;-60
2023/03/11 04:33:16;;;;;;;0.50;0.40;;;3.90;99.90;;;;;;4973227;28;20212;-61
2023/03/11 04:35:44;;;;;;;1.02;0.60;;;3.80;99.90;;;;;;4971474;28;20242;-61
2023/03/11 04:38:12;;;;;;;0.50;0.40;;;3.80;99.90;;;;;;4972521;28;20238;-61
2023/03/11 04:40:40;;;;;;;1.40;0.60;;;3.80;99.90;;;;;;4972027;28;20210;-61
2023/03/11 04:43:09;;;;;;;0.70;0.70;;;4.00;99.90;;;;;;4973650;28;20590;-61
2023/03/11 04:45:38;;;;;;;0.73;0.60;;;3.90;99.90;;;;;;4977281;28;20312;-61
2023/03/11 04:48:08;;;;;;;1.13;0.68;;;3.90;99.90;;;;;;4975791;28;20585;-62
2023/03/11 04:50:36;;;;;;;0.60;0.50;;;3.90;99.90;;;;;;4967743;28;20300;-62
2023/03/11 04:53:04;;;;;;;0.98;0.63;;;3.90;99.90;;;;;;4978141;28;20287;-61
2023/03/11 04:55:32;;;;;;;0.63;0.50;;;3.70;99.90;;;;;;4982864;28;20755;-61
2023/03/11 04:58:00;;;;;;;0.50;0.40;;;3.70;99.90;;;;;;4981611;28;20212;-62
2023/03/11 05:00:29;;;;;;;0.70;0.70;;;3.70;99.90;;;;;;4987765;28;20218;-61
2023/03/11 05:02:57;;;;;;;0.73;0.63;;;3.80;99.90;;;;;;4983492;28;20269;-61
2023/03/11 05:05:25;;;;;;;0.60;0.50;;;3.70;99.90;;;;;;4979184;28;20221;-61
2023/03/11 05:07:53;;;;;;;0.80;0.50;;;3.60;99.90;;;;;;4980830;28;20285;-61
2023/03/11 05:10:22;;;;;;;0.52;0.40;;;3.80;99.90;;;;;;4978698;28;20699;-61
2023/03/11 05:12:49;;;;;;;0.70;0.50;;;3.80;99.90;;;;;;4979901;28;20213;-62
2023/03/11 05:15:18;;;;;;;0.60;0.40;;;3.80;99.90;;;;;;4976848;28;20238;-62
2023/03/11 05:17:47;;;;;;;0.60;0.50;;;3.80;99.90;;;;;;4975980;28;20234;-62
2023/03/11 05:20:15;;;;;;;0.60;0.50;;;3.90;99.90;;;;;;4974275;28;20205;-62
2023/03/11 05:22:43;;;;;;;0.60;0.60;;;4.10;99.90;;;;;;4975466;28;20204;-62
2023/03/11 05:25:11;;;;;;;0.60;0.43;;;4.30;99.90;;;;;;4975817;28;20227;-61
2023/03/11 05:27:39;;;;;;;0.98;0.60;;;4.30;99.90;;;;;;4975646;28;20286;-62
2023/03/11 05:30:08;;;;;;;0.63;0.63;;;4.40;99.90;;;;;;4974083;28;20228;-62
2023/03/11 05:32:36;;;;;;;1.25;0.55;;;4.50;99.90;;;;;;4973637;28;20216;-61
2023/03/11 05:35:06;;;;;;;0.70;0.70;;;4.60;99.90;;;;;;4971138;28;20716;-64
2023/03/11 05:37:37;;;;;;;1.15;0.80;;;4.60;99.90;;;;;;4975819;28;20215;-61
2023/03/11 05:40:07;;;;;;;0.50;0.40;;;4.40;99.90;;;;;;4977375;28;20285;-62
2023/03/11 05:42:35;;;;;;;0.60;0.40;;;4.00;99.90;;;;;;4974915;28;20294;-61
2023/03/11 05:45:03;;;;;;;0.60;0.40;;;3.70;99.90;;;;;;4974279;28;20215;-61
2023/03/11 05:47:31;;;;;;;0.98;0.70;;;3.20;99.90;;;;;;4969125;28;20215;-62
2023/03/11 05:49:58;;;;;;;0.70;0.60;;;3.00;99.90;;;;;;4975442;28;20227;-62
2023/03/11 05:52:29;;;;;;;1.15;0.80;;;2.80;99.90;;;;;;4972332;28;20577;-61
2023/03/11 05:54:57;;;;;;;0.68;0.55;;;2.70;99.90;;;;;;4974435;28;20611;-62
2023/03/11 05:57:25;;;;;;;0.82;0.60;;;2.70;99.90;;;;;;4971491;28;20575;-61
2023/03/11 05:59:53;;;;;;;0.60;0.40;;;2.70;99.90;;;;;;4974171;28;20662;-61
2023/03/11 06:02:22;;;;;;;0.70;0.60;;;2.70;99.90;;;;;;4973618;28;20725;-62
2023/03/11 06:04:49;;;;;;;0.60;0.50;;;2.60;99.90;;;;;;4973111;28;20614;-62
2023/03/11 06:07:18;;;;;;;0.65;0.57;;;2.50;99.90;;;;;;4974218;28;20216;-61
2023/03/11 06:09:49;;;;;;;0.80;0.60;;;2.30;99.90;;;;;;4971543;28;20228;-62
2023/03/11 06:12:17;;;;;;;0.60;0.40;;;2.20;99.90;;;;;;4969840;28;20213;-61
2023/03/11 06:14:45;;;;;;;0.60;0.50;;;2.20;99.90;;;;;;4972344;28;20231;-62
2023/03/11 06:17:14;;;;;;;0.93;0.60;;;2.20;99.90;;;;;;4980783;28;20238;-61
2023/03/11 06:19:42;;;;;;;0.90;0.70;;;2.30;99.90;;;;;;4973148;28;20700;-61
2023/03/11 06:22:10;;;;;;;1.00;0.60;;;2.30;99.90;;;;;;4972147;28;20219;-61
2023/03/11 06:24:38;;;;;;;1.00;0.80;;;2.40;99.90;;;;;;4970351;28;20241;-61
2023/03/11 06:27:08;;;;;;;0.80;0.50;;;2.40;99.90;;;;;;4970007;28;20706;-62
2023/03/11 06:29:35;;;;;;;1.13;1.02;;;2.50;99.90;;;;;;4970854;28;20228;-61
2023/03/11 06:32:03;;;;;;;1.10;0.68;;;2.50;99.90;;;;;;4970223;28;20295;-62
2023/03/11 06:34:31;;;;;;;0.60;0.50;;;2.50;99.90;;;;;;4967917;28;20721;-63
2023/03/11 06:36:59;;;;;;;0.50;0.40;;;2.50;99.90;;;;;;4966369;28;20242;-62
2023/03/11 06:39:27;;;;;;;0.70;0.60;;;2.50;99.90;;;;;;4971024;28;20204;-61
2023/03/11 06:41:55;;;;;;;0.70;0.60;;;2.40;99.90;;;;;;4967845;28;20695;-61
2023/03/11 06:44:24;;;;;;;0.93;0.60;;;2.40;99.90;;;;;;4966148;28;20220;-61
2023/03/11 06:46:52;;;;;;;0.60;0.50;;;2.50;99.90;;;;;;4976342;28;20225;-61
2023/03/11 06:49:20;;;;;;;0.70;0.50;;;2.40;99.90;;;;;;4967300;28;20778;-62
2023/03/11 06:51:48;;;;;;;0.70;0.60;;;2.40;99.90;;;;;;4976502;28;20207;-61
2023/03/11 06:54:16;;;;;;;0.57;0.47;;;2.50;99.90;;;;;;4963164;28;20219;-62
2023/03/11 06:56:44;;;;;;;0.60;0.50;;;2.50;99.90;;;;;;4972663;28;20236;-62
2023/03/11 06:59:13;;;;;;;1.25;1.15;;;2.50;99.90;;;;;;4970353;28;20330;-62
2023/03/11 07:01:43;;;;;;;0.80;0.50;;;2.50;99.90;;;;;;4966397;28;20574;-63
2023/03/11 07:04:11;;;;;;;0.70;0.50;;;2.60;99.90;;;;;;4966740;28;20223;-62
2023/03/11 07:06:41;;;;;;;0.90;0.60;;;2.60;99.90;;;;;;4968346;28;20764;-62
2023/03/11 07:09:09;;;;;;;0.60;0.60;;;2.60;99.90;;;;;;4972273;28;20684;-62
2023/03/11 07:11:37;;;;;;;0.70;0.70;;;2.70;99.90;;;;;;4963011;28;20211;-61
2023/03/11 07:14:05;;;;;;;0.60;0.50;;;2.70;99.90;;;;;;4969377;28;20218;-61
2023/03/11 07:16:33;;;;;;;3.92;0.82;;;2.70;99.90;;;;;;4969260;28;20821;-61
2023/03/11 07:19:03;;;;;;;1.48;0.68;;;2.70;99.90;;;;;;4968521;28;20229;-62
2023/03/11 07:21:32;;;;;;;0.80;0.70;;;2.80;99.90;;;;;;4964059;28;20575;-61
2023/03/11 07:24:01;;;;;;;0.60;0.50;;;2.90;99.90;;;;;;4964640;28;20208;-62
2023/03/11 07:26:31;;;;;;;1.60;0.50;;;3.00;99.90;;;;;;4971086;28;20313;-61
2023/03/11 07:28:59;;;;;;;0.70;0.60;;;3.00;99.90;;;;;;4968668;28;20217;-61
2023/03/11 07:31:29;;;;;;;0.60;0.45;;;3.10;99.90;;;;;;4971584;28;20229;-61
2023/03/11 07:33:59;;;;;;;0.93;0.50;;;3.10;99.90;;;;;;4964116;28;20208;-61
2023/03/11 07:36:29;;;;;;;0.60;0.50;;;3.20;99.90;;;;;;4965772;28;20240;-62
2023/03/11 07:38:58;;;;;;;0.80;0.60;;;3.30;99.90;;;;;;4969389;28;20289;-61
2023/03/11 07:41:30;;;;;;;0.60;0.40;;;3.40;99.90;;;;;;4965598;28;20236;-61
2023/03/11 07:44:00;;;;;;;0.70;0.43;;;3.40;99.90;;;;;;4965576;28;20255;-62
2023/03/11 07:46:29;;;;;;;1.25;0.47;;;3.50;99.90;;;;;;4966229;28;20234;-61
2023/03/11 07:48:57;;;;;;;0.60;0.50;;;3.60;99.90;;;;;;4964405;28;20210;-61
2023/03/11 07:51:27;;;;;;;0.60;0.40;;;3.70;99.90;;;;;;4967034;28;20605;-61
2023/03/11 07:53:58;;;;;;;0.60;0.40;;;3.70;99.90;;;;;;4967832;28;20222;-61
2023/03/11 07:56:28;;;;;;;0.70;0.40;;;3.70;99.90;;;;;;4964747;28;20222;-61
2023/03/11 07:58:58;;;;;;;0.63;0.50;;;3.70;99.90;;;;;;4968743;28;20233;-61
2023/03/11 08:01:29;;;;;;;0.82;0.52;;;3.80;99.90;;;;;;4966507;28;20642;-61
2023/03/11 08:03:57;;;;;;;0.50;0.30;;;3.90;99.90;;;;;;4966640;28;20211;-62
2023/03/11 08:06:29;;;;;;;0.88;0.40;;;3.80;99.90;;;;;;4961454;28;20795;-61
2023/03/11 08:09:00;;;;;;;0.70;0.50;;;3.80;99.90;;;;;;4965417;28;20203;-61
2023/03/11 08:11:28;;;;;;;0.60;0.50;;;3.70;99.90;;;;;;4965110;28;20293;-61
2023/03/11 08:13:56;;;;;;;1.40;0.50;;;3.60;99.90;;;;;;4963692;28;20212;-61
2023/03/11 08:16:25;;;;;;;0.60;0.40;;;3.60;99.90;;;;;;4959417;28;20674;-61
2023/03/11 08:18:54;;;;;;;0.50;0.40;;;3.70;99.90;;;;;;4965323;28;20241;-61
2023/03/11 08:21:23;;;;;;;0.82;0.60;;;3.70;99.90;;;;;;4966260;28;20231;-66
2023/03/11 08:23:51;;;;;;;0.60;0.50;;;3.90;99.90;;;;;;4960606;28;20202;-61
2023/03/11 08:26:21;;;;;;;0.60;0.40;;;4.10;99.90;;;;;;4979750;28;20241;-60
2023/03/11 08:28:50;;;;;;;1.20;0.60;;;4.30;99.90;;;;;;4979794;28;20298;-61
2023/03/11 08:31:20;;;;;;;0.70;0.52;;;4.40;99.90;;;;;;4979656;28;20239;-61
2023/03/11 08:33:50;;;;;;;0.70;0.60;;;4.40;99.90;;;;;;4978816;28;20212;-61
2023/03/11 08:36:18;;;;;;;0.70;0.40;;;4.60;99.90;;;;;;4978143;28;20616;-61
2023/03/11 08:38:47;;;;;;;0.60;0.40;;;4.70;99.90;;;;;;4980168;28;20576;-61
2023/03/11 08:41:15;;;;;;;0.65;0.47;;;4.80;99.90;;;;;;4975548;28;20242;-61
2023/03/11 08:43:45;;;;;;;0.60;0.40;;;5.20;99.90;;;;;;4978350;28;20212;-65
2023/03/11 08:46:19;;;;;;;0.70;0.70;;;5.40;99.90;;;;;;4983378;28;20329;-65
2023/03/11 08:48:47;;;;;;;1.02;0.50;;;5.80;99.90;;;;;;4974553;28;20215;-61
2023/03/11 08:51:15;;;;;;;0.93;0.55;;;5.90;99.90;;;;;;4983422;28;20246;-62
2023/03/11 08:53:43;;;;;;;0.50;0.40;;;5.80;99.90;;;;;;4986443;28;20204;-62
2023/03/11 08:56:11;;;;;;;0.80;0.50;;;5.90;99.90;;;;;;4977906;28;20714;-62
2023/03/11 08:58:39;;;;;;;0.65;0.50;;;5.90;99.90;;;;;;4979339;28;20573;-62
2023/03/11 09:01:15;;;;;;;0.60;0.50;;;6.00;99.90;;;;;;4980960;28;20204;-62
2023/03/11 09:03:43;;;;;;;1.25;0.43;;;6.10;99.90;;;;;;4978797;28;20218;-62
2023/03/11 09:06:14;;;;;;;0.60;0.40;;;6.00;99.90;;;;;;4978443;28;20320;-62
2023/03/11 09:08:42;;;;;;;0.60;0.40;;;5.80;99.90;;;;;;4980259;28;20258;-62
2023/03/11 09:11:12;;;;;;;3.25;0.80;;;5.80;99.90;;;;;;4982695;28;20770;-61
2023/03/11 09:13:40;;;;;;;0.60;0.40;;;5.90;99.90;;;;;;4981023;28;20298;-62
2023/03/11 09:16:09;;;;;;;0.75;0.40;;;5.90;99.90;;;;;;4979649;28;20323;-62
2023/03/11 09:18:39;;;;;;;0.60;0.47;;;6.20;99.90;;;;;;4983926;28;20693;-62
2023/03/11 09:21:08;;;;;;;0.60;0.50;;;6.40;99.90;;;;;;4979294;28;20238;-62
2023/03/11 09:23:36;;;;;;;0.60;0.45;;;6.70;99.90;;;;;;4980267;28;20752;-62
2023/03/11 09:26:04;;;;;;;0.50;0.40;;;6.90;99.90;;;;;;4982818;28;20233;-62
2023/03/11 09:28:32;;;;;;;0.60;0.40;;;7.20;99.90;;;;;;4982218;28;20212;-62
2023/03/11 09:31:00;;;;;;;1.23;0.63;;;7.50;99.90;;;;;;4979555;28;20228;-62
2023/03/11 09:33:28;;;;;;;0.50;0.40;;;7.60;99.90;;;;;;4979200;28;20213;-62
2023/03/11 09:35:57;;;;;;;1.85;0.60;;;7.60;99.90;;;;;;4971530;28;20301;-62
2023/03/11 09:38:25;;;;;;;0.57;0.43;;;7.10;99.90;;;;;;4978300;28;20706;-62
2023/03/11 09:41:02;;;;;;;0.60;0.45;;;7.40;99.90;;;;;;4971327;28;20563;-62
2023/03/11 09:43:57;;;;;;;0.60;0.50;;;7.50;99.90;;;;;;4979120;28;20233;-62
2023/03/11 09:46:59;;;;;;;0.65;0.40;;;7.60;99.90;;;;;;4982524;28;20335;-62
2023/03/11 09:49:35;;;;;;;0.50;0.35;;;7.70;99.90;;;;;;4979429;28;20671;-62
2023/03/11 09:52:10;;;;;;;0.60;0.47;;;7.50;99.90;;;;;;4982769;28;20259;-62
2023/03/11 09:54:42;;;;;;;0.60;0.40;;;7.60;99.90;;;;;;4984113;28;20613;-62
2023/03/11 09:57:15;;;;;;;0.60;0.45;;;7.50;99.90;;;;;;4986445;28;20236;-62
2023/03/11 09:59:45;;;;;;;0.50;0.30;;;7.60;99.90;;;;;;4984287;28;20205;-62
2023/03/11 10:02:17;;;;;;;0.60;0.50;;;7.70;97.60;;;;;;4982407;28;20256;-63
2023/03/11 10:04:51;;;;;;;0.50;0.40;;;7.60;97.30;;;;;;4984609;28;20576;-62
2023/03/11 10:07:27;;;;;;;0.60;0.50;;;8.10;98.50;;;;;;4985998;28;20200;-62
2023/03/11 10:09:57;;;;;;;0.50;0.40;;;8.00;97.80;;;;;;4974839;28;20219;-61
2023/03/11 10:12:43;;;;;;;0.50;0.35;;;8.20;97.80;;;;;;4981476;28;20233;-61
2023/03/11 10:15:19;;;;;;;0.60;0.50;;;8.30;96.20;;;;;;4974358;28;20324;-61
2023/03/11 10:18:03;;;;;;;0.70;0.50;;;8.10;95.70;;;;;;4984777;28;20681;-62
2023/03/11 10:20:46;;;;;;;0.60;0.50;;;8.30;95.30;;;;;;4985679;28;20229;-61
2023/03/11 10:23:26;;;;;;;0.50;0.40;;;8.60;94.70;;;;;;4981767;28;20210;-61
2023/03/11 10:26:00;;;;;;;0.50;0.40;;;8.90;95.90;;;;;;4985171;28;20315;-61
2023/03/11 10:28:33;;;;;;;0.50;0.30;;;9.00;94.30;;;;;;4985540;28;20245;-62
2023/03/11 10:31:07;;;;;;;0.50;0.40;;;9.10;94.20;;;;;;4974966;28;20225;-61
2023/03/11 10:33:41;;;;;;;0.50;0.30;;;9.50;94.20;;;;;;4982014;28;20554;-62
2023/03/11 10:36:14;;;;;;;1.02;0.70;;;9.70;94.00;;;;;;4985225;28;20255;-61
2023/03/11 10:38:46;;;;;;;0.50;0.30;;;9.80;93.80;;;;;;4975906;28;20293;-61
2023/03/11 10:41:19;;;;;;;0.70;0.40;;;9.40;93.70;;;;;;4974198;28;20595;-61
2023/03/11 10:43:52;;;;;;;0.50;0.40;;;8.70;93.60;;;;;;4983970;28;20216;-61
2023/03/11 10:46:23;;;;;;;0.60;0.50;;;8.70;93.40;;;;;;4985736;28;20243;-61
2023/03/11 10:48:51;;;;;;;0.50;0.40;;;8.90;92.80;;;;;;4982836;28;20218;-61
2023/03/11 10:51:22;;;;;;;0.50;0.30;;;9.10;93.40;;;;;;4981794;28;20591;-61
2023/03/11 10:53:53;;;;;;;0.50;0.30;;;9.30;93.40;;;;;;4984209;28;20210;-61
2023/03/11 10:56:30;;;;;;;0.50;0.30;;;9.80;92.80;;;;;;4985235;28;20256;-61
2023/03/11 10:58:59;;;;;;;0.50;0.30;;;9.70;91.50;;;;;;4978187;28;20221;-61
2023/03/11 11:01:29;;;;;;;0.50;0.30;;;10.10;92.50;;;;;;4985538;28;20206;-61
2023/03/11 11:04:00;;;;;;;2.25;0.68;;;10.20;91.20;;;;;;4982405;28;20700;-61
2023/03/11 11:06:29;;;;;;;0.63;0.45;;;9.80;90.40;;;;;;4982250;28;20227;-61
2023/03/11 11:09:15;;;;;;;0.60;0.40;;;9.90;90.20;;;;;;4973781;28;20203;-61
2023/03/11 11:11:59;;;;;;;1.40;0.60;;;10.20;89.80;;;;;;4975327;28;20221;-61
2023/03/11 11:14:42;;;;;;;0.60;0.50;;;10.10;89.40;;;;;;4985418;28;20253;-61
2023/03/11 11:17:17;;;;;;;0.50;0.38;;;9.50;89.00;;;;;;4975613;28;20229;-61
2023/03/11 11:19:46;;;;;;;0.50;0.30;;;9.00;89.90;;;;;;4983818;28;20294;-61
2023/03/11 11:22:17;;;;;;;3.90;0.70;;;8.70;91.80;;;;;;4984919;28;20661;-61
2023/03/11 11:24:50;;;;;;;2.55;1.25;;;8.40;91.70;;;;;;4984107;28;20289;-61
2023/03/11 11:27:20;;;;;;;1.02;0.70;;;7.90;93.00;;;;;;4981944;28;20218;-61
2023/03/11 11:30:11;;;;;;;0.60;0.40;;;7.70;92.90;;;;;;4983611;28;20212;-61
2023/03/11 11:32:39;;;;;;;0.60;0.50;;;7.20;94.50;;;;;;4984086;28;20307;-61
2023/03/11 11:35:10;;;;;;;0.60;0.47;;;7.10;93.90;;;;;;4981264;28;20212;-61
2023/03/11 11:37:42;;;;;;;0.50;0.40;;;6.90;93.50;;;;;;4982145;28;20577;-61
2023/03/11 11:40:26;;;;;;;1.08;0.70;;;7.20;94.10;;;;;;4973631;28;20556;-61
2023/03/11 11:42:57;;;;;;;0.60;0.40;;;8.10;93.90;;;;;;4981790;28;20673;-61
2023/03/11 11:45:34;;;;;;;0.60;0.40;;;8.90;94.30;;;;;;4981857;28;20228;-61
2023/03/11 11:48:07;;;;;;;0.50;0.30;;;9.20;91.50;;;;;;4973833;28;20205;-61
2023/03/11 11:50:37;;;;;;;0.50;0.40;;;9.20;91.90;;;;;;4981544;28;20211;-63
2023/03/11 11:53:17;;;;;;;0.50;0.40;;;9.10;91.90;;;;;;4980690;28;20767;-61
2023/03/11 11:55:52;;;;;;;0.50;0.30;;;10.00;90.80;;;;;;4981623;28;20226;-61
2023/03/11 11:58:21;;;;;;;0.50;0.30;;;10.30;90.00;;;;;;4984068;28;20214;-61
2023/03/11 12:01:03;;;;;;;1.40;0.70;;;10.10;89.50;;;;;;4979111;28;20471;-61
2023/03/11 12:03:49;;;;;;;0.50;0.40;;;10.30;90.00;;;;;;4983956;28;20197;-61
2023/03/11 12:06:27;;;;;;;0.50;0.30;;;10.70;88.70;;;;;;4974645;28;20265;-61
2023/03/11 12:09:07;;;;;;;3.10;0.73;;;10.30;87.30;;;;;;4979278;28;20242;-61
2023/03/11 12:11:40;;;;;;;0.50;0.40;;;10.40;89.30;;;;;;4983471;28;20201;-61
2023/03/11 12:14:17;;;;;;;0.60;0.40;;;10.90;88.40;;;;;;4984021;28;20574;-61
2023/03/11 12:16:52;;;;;;;0.70;0.40;;;11.60;86.50;;;;;;4982649;28;20225;-62
2023/03/11 12:19:31;;;;;;;0.60;0.50;;;12.00;84.30;;;;;;4980321;28;20206;-61
2023/03/11 12:22:33;;;;;;;0.88;0.43;;;12.50;87.40;;;;;;4982679;28;20208;-61
2023/03/11 12:25:20;;;;;;;0.50;0.30;;;12.70;79.60;;;;;;4980159;28;20208;-61
2023/03/11 12:27:56;;;;;;;0.50;0.40;;;13.20;81.30;;;;;;4977637;28;20202;-61
2023/03/11 12:30:28;;;;;;;0.50;0.30;;;13.50;77.10;;;;;;4978104;28;20233;-62
2023/03/11 12:33:01;;;;;;;0.50;0.30;;;13.70;77.80;;;;;;4980717;28;20308;-61
2023/03/11 12:35:32;;;;;;;0.50;0.30;;;13.90;75.70;;;;;;4980107;28;20234;-62
2023/03/11 12:38:17;;;;;;;0.50;0.40;;;14.30;72.90;;;;;;4969548;28;20213;-62
2023/03/11 12:40:56;;;;;;;0.50;0.35;;;14.60;74.10;;;;;;4979641;28;20594;-61
2023/03/11 12:43:29;;;;;;;0.60;0.40;;;14.90;72.80;;;;;;4980028;28;20273;-61
2023/03/11 12:45:58;;;;;;;0.60;0.40;;;15.20;71.60;;;;;;4982085;28;20222;-62
2023/03/11 12:48:41;;;;;;;0.50;0.40;;;15.30;71.20;;;;;;4983188;28;20209;-62
2023/03/11 12:51:38;;;;;;;0.50;0.30;;;15.10;70.10;;;;;;4982887;28;20728;-61
2023/03/11 12:54:28;;;;;;;0.50;0.30;;;14.00;71.80;;;;;;4983136;28;20587;-61
2023/03/11 12:56:58;;;;;;;0.50;0.30;;;12.90;72.80;;;;;;4980452;28;20234;-61
2023/03/11 13:00:00;;;;;;;0.50;0.30;;;12.30;73.40;;;;;;4982621;28;20573;-61
2023/03/11 13:02:46;;;;;;;0.50;0.30;;;11.40;72.20;;;;;;4983415;28;20292;-61
2023/03/11 13:05:22;;;;;;;0.70;0.40;;;10.40;75.10;;;;;;4973083;28;20736;-62
2023/03/11 13:07:53;;;;;;;1.65;1.30;;;10.00;76.70;;;;;;4979370;28;20242;-62
2023/03/11 13:10:39;;;;;;;1.23;0.55;;;9.80;76.80;;;;;;4971695;28;20648;-62
2023/03/11 13:13:39;;;;;;;1.45;0.60;;;9.70;78.60;;;;;;4964715;28;20225;-62
2023/03/11 13:16:39;;;;;;;0.50;0.32;;;9.40;77.80;;;;;;4930477;29;20231;-61